Time;durP1;ratioP1;P1;durP2;ratioP2;P2;SDS_P1;SDS_P2;PMS_P1;PMS_P2;Temp;Humidity;BMP_temperature;BMP_pressure;BME280_temperature;BME280_humidity;BME280_pressure;Samples;Min_cycle;Max_cycle;Signal;HPM_P1;HPM_P2
2022/10/28 00:02:25;;;;;;;9.40;5.23;;;;;;;13.41;100.00;101437.88;7383765;19;20444;-53
2022/10/28 00:04:57;;;;;;;10.00;5.53;;;;;;;13.43;100.00;101441.44;7391616;19;20427;-53
2022/10/28 00:07:27;;;;;;;9.10;5.33;;;;;;;13.43;100.00;101444.03;7386276;19;20398;-57
2022/10/28 00:09:56;;;;;;;15.73;5.93;;;;;;;13.38;100.00;101436.03;7389458;19;20939;-51
2022/10/28 00:12:26;;;;;;;10.60;5.37;;;;;;;13.37;100.00;101444.66;7386001;19;20427;-50
2022/10/28 00:14:55;;;;;;;13.77;5.50;;;;;;;13.36;100.00;101442.88;7387324;19;20780;-53
2022/10/28 00:17:25;;;;;;;10.40;5.57;;;;;;;13.30;100.00;101438.34;7381701;19;20919;-55
2022/10/28 00:19:54;;;;;;;14.57;5.63;;;;;;;13.34;100.00;101434.16;7388053;19;20385;-54
2022/10/28 00:22:26;;;;;;;12.83;5.83;;;;;;;13.37;100.00;101435.19;7384308;19;20441;-52
2022/10/28 00:24:56;;;;;;;11.70;6.10;;;;;;;13.33;100.00;101433.28;7387674;19;20749;-50
2022/10/28 00:27:25;;;;;;;12.60;5.57;;;;;;;13.32;100.00;101440.97;7384531;19;20437;-52
2022/10/28 00:29:55;;;;;;;11.40;5.73;;;;;;;13.29;100.00;101431.41;7388235;19;20416;-52
2022/10/28 00:32:25;;;;;;;11.90;6.10;;;;;;;13.29;100.00;101438.28;7385419;19;21227;-50
2022/10/28 00:34:54;;;;;;;11.40;5.97;;;;;;;13.24;100.00;101438.09;7387244;19;20415;-52
2022/10/28 00:37:26;;;;;;;12.00;5.83;;;;;;;13.24;100.00;101431.19;7383013;19;20401;-51
2022/10/28 00:39:56;;;;;;;11.17;6.20;;;;;;;13.24;100.00;101426.00;7388228;19;20393;-51
2022/10/28 00:42:25;;;;;;;14.07;6.60;;;;;;;13.26;100.00;101426.06;7384218;19;20407;-53
2022/10/28 00:44:58;;;;;;;16.83;6.87;;;;;;;13.22;100.00;101421.56;7387624;19;20395;-49
2022/10/28 00:47:44;;;;;;;11.77;5.90;;;;;;;13.20;100.00;101431.91;7384055;19;20492;-50
2022/10/28 00:50:18;;;;;;;11.90;5.70;;;;;;;13.15;100.00;101435.09;7388073;19;20395;-50
2022/10/28 00:52:54;;;;;;;11.30;6.43;;;;;;;13.15;100.00;101432.50;7385514;19;20417;-50
2022/10/28 00:55:24;;;;;;;14.23;6.50;;;;;;;13.14;100.00;101428.16;7387055;19;20415;-53
2022/10/28 00:57:55;;;;;;;11.73;6.43;;;;;;;13.14;100.00;101426.47;7382848;19;20418;-55
2022/10/28 01:00:25;;;;;;;13.80;6.00;;;;;;;13.12;100.00;101427.22;7387302;19;20385;-50
2022/10/28 01:02:55;;;;;;;16.67;6.50;;;;;;;13.09;100.00;101431.41;7386018;19;20813;-52
2022/10/28 01:05:27;;;;;;;11.43;6.70;;;;;;;13.06;100.00;101438.19;7394523;19;20421;-53
2022/10/28 01:08:03;;;;;;;11.23;6.03;;;;;;;13.05;100.00;101434.72;7390405;19;20427;-49
2022/10/28 01:10:56;;;;;;;14.13;7.30;;;;;;;13.02;100.00;101431.97;7395447;19;20398;-56
2022/10/28 01:13:35;;;;;;;14.17;6.50;;;;;;;12.99;100.00;101434.47;7378892;19;20413;-51
2022/10/28 01:16:08;;;;;;;12.43;6.90;;;;;;;12.98;100.00;101434.38;7393131;19;20442;-54
2022/10/28 01:18:44;;;;;;;13.63;6.10;;;;;;;12.94;100.00;101433.38;7391538;19;20404;-48
2022/10/28 01:21:43;;;;;;;13.40;7.37;;;;;;;12.92;100.00;101440.19;7388777;19;20409;-50
2022/10/28 01:24:26;;;;;;;16.33;6.70;;;;;;;12.89;100.00;101440.06;7391561;19;20456;-49
2022/10/28 01:27:28;;;;;;;10.73;6.93;;;;;;;12.89;100.00;101429.69;7391968;19;20421;-47
2022/10/28 01:30:06;;;;;;;12.47;6.40;;;;;;;12.88;100.00;101438.28;7394132;19;20415;-49
2022/10/28 01:32:46;;;;;;;12.10;6.57;;;;;;;12.89;100.00;101419.34;7394459;19;20429;-48
2022/10/28 01:35:20;;;;;;;17.80;7.30;;;;;;;12.86;100.00;101429.56;7393219;19;20386;-51
2022/10/28 01:37:58;;;;;;;10.87;6.47;;;;;;;12.78;100.00;101429.25;7390281;19;20442;-48
2022/10/28 01:40:32;;;;;;;10.43;6.40;;;;;;;12.76;100.00;101428.28;7397750;19;20403;-54
2022/10/28 01:43:10;;;;;;;13.17;8.80;;;;;;;12.72;100.00;101436.75;7390262;19;20462;-52
2022/10/28 01:45:43;;;;;;;14.90;6.60;;;;;;;12.66;100.00;101439.91;7392376;19;21011;-53
2022/10/28 01:48:17;;;;;;;12.40;7.03;;;;;;;12.64;100.00;101429.53;7390399;19;20408;-50
2022/10/28 01:50:50;;;;;;;10.77;6.70;;;;;;;12.68;100.00;101433.13;7394008;19;20417;-52
2022/10/28 01:53:23;;;;;;;16.63;7.50;;;;;;;12.71;100.00;101424.63;7390794;19;20432;-48
2022/10/28 01:55:55;;;;;;;12.77;7.90;;;;;;;12.70;100.00;101426.31;7391967;19;20423;-50
2022/10/28 01:58:28;;;;;;;22.23;8.07;;;;;;;12.67;100.00;101427.06;7390052;19;20434;-50
2022/10/28 02:00:58;;;;;;;12.60;7.47;;;;;;;12.70;100.00;101436.66;7393531;19;20415;-48
2022/10/28 02:03:30;;;;;;;14.93;7.50;;;;;;;12.72;100.00;101431.56;7389818;19;20458;-50
2022/10/28 02:06:02;;;;;;;13.80;6.90;;;;;;;12.72;100.00;101437.59;7392850;19;20753;-50
2022/10/28 02:08:39;;;;;;;14.40;8.37;;;;;;;12.78;100.00;101432.69;7390416;19;20413;-48
2022/10/28 02:11:21;;;;;;;13.40;7.33;;;;;;;12.78;100.00;101430.09;7393310;19;20397;-53
2022/10/28 02:13:57;;;;;;;12.67;6.37;;;;;;;12.85;100.00;101439.03;7392835;19;20437;-50
2022/10/28 02:16:31;;;;;;;17.93;7.40;;;;;;;12.92;100.00;101427.25;7391295;19;20437;-50
2022/10/28 02:19:09;;;;;;;10.00;6.10;;;;;;;12.86;100.00;101434.75;7389117;19;20962;-50
2022/10/28 02:21:46;;;;;;;11.60;6.97;;;;;;;12.88;100.00;101439.19;7392819;19;20922;-51
2022/10/28 02:24:20;;;;;;;12.03;7.00;;;;;;;12.83;100.00;101438.97;7388049;19;20464;-51
2022/10/28 02:26:54;;;;;;;20.73;7.60;;;;;;;12.86;100.00;101439.94;7390755;19;20782;-48
2022/10/28 02:29:30;;;;;;;13.13;7.20;;;;;;;12.76;100.00;101438.66;7391686;19;20410;-48
2022/10/28 02:32:02;;;;;;;11.80;7.00;;;;;;;12.77;100.00;101440.41;7388992;19;20404;-48
2022/10/28 02:34:38;;;;;;;11.23;7.00;;;;;;;12.75;100.00;101453.28;7391838;19;20410;-48
2022/10/28 02:37:12;;;;;;;20.90;6.97;;;;;;;12.77;100.00;101456.81;7387173;19;20415;-52
2022/10/28 02:39:44;;;;;;;16.60;6.73;;;;;;;12.71;100.00;101451.38;7392073;19;20389;-50
2022/10/28 02:42:15;;;;;;;9.27;6.40;;;;;;;12.76;100.00;101462.81;7389839;19;20390;-52
2022/10/28 02:44:50;;;;;;;15.20;6.97;;;;;;;12.69;100.00;101453.91;7390409;19;20386;-50
2022/10/28 02:47:21;;;;;;;13.00;7.10;;;;;;;12.65;100.00;101456.28;7388653;19;20780;-55
2022/10/28 02:49:57;;;;;;;14.30;7.70;;;;;;;12.62;100.00;101458.75;7394618;19;20943;-50
2022/10/28 02:52:28;;;;;;;15.10;7.80;;;;;;;12.73;100.00;101459.22;7388833;19;20986;-49
2022/10/28 02:54:59;;;;;;;14.47;7.60;;;;;;;12.68;100.00;101452.13;7390803;19;20391;-50
2022/10/28 02:57:31;;;;;;;10.77;7.00;;;;;;;12.62;100.00;101453.56;7389891;19;20408;-53
2022/10/28 03:00:02;;;;;;;16.43;7.00;;;;;;;12.53;100.00;101444.59;7391075;19;20390;-51
2022/10/28 03:02:32;;;;;;;13.20;7.30;;;;;;;12.50;100.00;101441.84;7392271;19;20441;-52
2022/10/28 03:05:05;;;;;;;14.67;7.20;;;;;;;12.48;100.00;101437.41;7388882;19;20407;-52
2022/10/28 03:07:34;;;;;;;16.53;7.33;;;;;;;12.50;100.00;101443.53;7388766;19;20771;-51
2022/10/28 03:10:05;;;;;;;13.83;8.40;;;;;;;12.43;100.00;101442.38;7391189;19;20386;-47
2022/10/28 03:12:34;;;;;;;18.40;7.90;;;;;;;12.40;100.00;101437.06;7388254;19;20414;-53
2022/10/28 03:15:04;;;;;;;13.27;8.10;;;;;;;12.37;100.00;101431.75;7390652;19;20414;-49
2022/10/28 03:17:34;;;;;;;12.20;7.80;;;;;;;12.34;100.00;101429.03;7387663;19;20981;-49
2022/10/28 03:20:07;;;;;;;12.23;6.90;;;;;;;12.35;100.00;101423.06;7390686;19;20900;-48
2022/10/28 03:22:36;;;;;;;12.20;7.00;;;;;;;12.41;100.00;101428.50;7387847;19;20413;-48
2022/10/28 03:25:06;;;;;;;18.20;7.00;;;;;;;12.41;100.00;101415.56;7388441;19;20418;-49
2022/10/28 03:27:36;;;;;;;13.13;6.50;;;;;;;12.39;100.00;101419.75;7387762;19;20413;-48
2022/10/28 03:30:06;;;;;;;11.43;5.70;;;;;;;12.40;100.00;101418.94;7391454;19;20396;-49
2022/10/28 03:32:36;;;;;;;14.50;7.33;;;;;;;12.44;100.00;101410.50;7387263;19;20418;-48
2022/10/28 03:35:09;;;;;;;17.30;7.00;;;;;;;12.42;100.00;101406.97;7389935;19;20385;-51
2022/10/28 03:37:39;;;;;;;11.47;7.13;;;;;;;12.37;100.00;101411.94;7387236;19;20407;-54
2022/10/28 03:40:09;;;;;;;13.17;6.47;;;;;;;12.40;100.00;101413.78;7390520;19;20942;-50
2022/10/28 03:42:39;;;;;;;12.00;6.63;;;;;;;12.39;100.00;101409.41;7388140;19;20434;-51
2022/10/28 03:45:10;;;;;;;9.00;6.97;;;;;;;12.44;100.00;101410.50;7388343;19;20387;-50
2022/10/28 03:47:39;;;;;;;13.57;6.47;;;;;;;12.40;100.00;101403.41;7387036;19;20418;-49
2022/10/28 03:50:12;;;;;;;11.10;7.20;;;;;;;12.44;100.00;101410.50;7389817;19;20416;-49
2022/10/28 03:52:41;;;;;;;15.60;6.30;;;;;;;12.43;100.00;101400.97;7387393;19;20405;-49
2022/10/28 03:55:11;;;;;;;9.33;6.80;;;;;;;12.50;100.00;101400.44;7389150;19;20910;-49
2022/10/28 03:57:40;;;;;;;10.90;5.93;;;;;;;12.50;100.00;101396.94;7385425;19;20413;-49
2022/10/28 04:00:11;;;;;;;16.50;7.20;;;;;;;12.46;100.00;101402.81;7389427;19;20390;-48
2022/10/28 04:02:40;;;;;;;12.80;6.30;;;;;;;12.49;100.00;101393.50;7386042;19;20748;-50
2022/10/28 04:05:13;;;;;;;11.27;6.90;;;;;;;12.53;100.00;101398.00;7388667;19;20448;-51
2022/10/28 04:07:42;;;;;;;11.93;6.47;;;;;;;12.46;100.00;101403.69;7386337;19;20801;-50
2022/10/28 04:10:12;;;;;;;15.33;6.47;;;;;;;12.42;100.00;101394.03;7389526;19;20452;-51
2022/10/28 04:12:42;;;;;;;10.77;6.33;;;;;;;12.37;100.00;101388.63;7377038;19;20449;-51
2022/10/28 04:15:11;;;;;;;16.03;6.17;;;;;;;12.43;100.00;101393.22;7388079;19;20390;-51
2022/10/28 04:17:41;;;;;;;14.10;5.80;;;;;;;12.48;100.00;101390.81;7385889;19;20829;-48
2022/10/28 04:20:13;;;;;;;12.13;6.60;;;;;;;12.52;100.00;101393.59;7389014;19;20416;-52
2022/10/28 04:22:43;;;;;;;9.93;6.23;;;;;;;12.55;100.00;101398.94;7381547;19;20437;-50
2022/10/28 04:25:12;;;;;;;15.03;6.90;;;;;;;12.58;100.00;101397.28;7386738;19;20397;-48
2022/10/28 04:27:44;;;;;;;15.70;6.27;;;;;;;12.54;100.00;101399.75;7386478;19;20400;-54
2022/10/28 04:30:14;;;;;;;11.13;6.10;;;;;;;12.59;100.00;101391.28;7388455;19;20417;-49
2022/10/28 04:32:44;;;;;;;11.40;6.50;;;;;;;12.56;100.00;101399.81;7385237;19;20429;-50
2022/10/28 04:35:16;;;;;;;14.30;6.20;;;;;;;12.56;100.00;101392.94;7387700;19;20377;-50
2022/10/28 04:37:46;;;;;;;9.13;6.03;;;;;;;12.46;100.00;101395.94;7386571;19;20447;-48
2022/10/28 04:40:15;;;;;;;16.07;6.13;;;;;;;12.42;100.00;101396.63;7395731;19;20388;-49
2022/10/28 04:42:45;;;;;;;9.67;5.70;;;;;;;12.47;100.00;101399.41;7392400;19;20526;-49
2022/10/28 04:45:14;;;;;;;12.17;5.50;;;;;;;12.41;100.00;101405.22;7393456;19;20747;-48
2022/10/28 04:47:44;;;;;;;11.50;6.00;;;;;;;12.37;100.00;101408.47;7392545;19;20411;-49
2022/10/28 04:50:16;;;;;;;12.03;5.67;;;;;;;12.38;100.00;101407.66;7395497;19;20393;-53
2022/10/28 04:52:46;;;;;;;9.67;5.73;;;;;;;12.39;100.00;101415.50;7392501;19;20413;-51
2022/10/28 04:55:15;;;;;;;11.93;6.30;;;;;;;12.39;100.00;101414.59;7394744;19;20404;-48
2022/10/28 04:57:45;;;;;;;9.63;6.07;;;;;;;12.42;100.00;101413.03;7391276;19;20985;-48
2022/10/28 05:00:15;;;;;;;11.90;6.50;;;;;;;12.43;100.00;101416.50;7399484;19;20405;-52
2022/10/28 05:02:45;;;;;;;17.53;6.90;;;;;;;12.45;100.00;101412.28;7392229;19;20408;-50
2022/10/28 05:05:17;;;;;;;11.83;7.00;;;;;;;12.46;100.00;101408.00;7393112;19;20805;-52
2022/10/28 05:07:47;;;;;;;13.67;6.90;;;;;;;12.56;100.00;101395.53;7391355;19;20402;-49
2022/10/28 05:10:16;;;;;;;13.40;6.77;;;;;;;12.56;100.00;101395.53;7398204;19;20913;-50
2022/10/28 05:12:47;;;;;;;13.73;7.10;;;;;;;12.67;100.00;101392.53;7392629;19;20417;-51
2022/10/28 05:15:16;;;;;;;23.67;7.90;;;;;;;12.73;100.00;101382.44;7394276;19;20394;-52
2022/10/28 05:17:47;;;;;;;14.33;7.00;;;;;;;12.81;100.00;101381.06;7390466;19;20409;-53
2022/10/28 05:20:20;;;;;;;12.17;7.40;;;;;;;12.76;100.00;101377.38;7395299;19;20390;-49
2022/10/28 05:22:52;;;;;;;12.87;7.43;;;;;;;12.81;100.00;101374.97;7391103;19;20961;-50
2022/10/28 05:25:23;;;;;;;14.40;7.53;;;;;;;12.81;100.00;101382.75;7392354;19;20385;-52
2022/10/28 05:27:52;;;;;;;11.43;6.93;;;;;;;12.75;100.00;101380.78;7391746;19;20419;-52
2022/10/28 05:30:22;;;;;;;13.03;6.70;;;;;;;12.79;100.00;101377.53;7394230;19;20416;-50
2022/10/28 05:32:51;;;;;;;13.97;7.30;;;;;;;12.78;100.00;101380.91;7392540;19;20416;-51
2022/10/28 05:35:26;;;;;;;16.67;6.93;;;;;;;12.80;100.00;101378.38;7392680;19;20402;-50
2022/10/28 05:37:55;;;;;;;12.30;7.13;;;;;;;12.70;100.00;101382.28;7389393;19;20424;-50
2022/10/28 05:40:25;;;;;;;11.10;7.07;;;;;;;12.78;100.00;101380.91;7393646;19;20857;-51
2022/10/28 05:42:55;;;;;;;11.47;6.80;;;;;;;12.80;100.00;101383.56;7390564;19;20413;-50
2022/10/28 05:45:25;;;;;;;24.73;14.43;;;;;;;12.77;100.00;101384.31;7391675;19;20405;-54
2022/10/28 05:47:54;;;;;;;12.10;7.27;;;;;;;12.83;100.00;101388.91;7389734;19;20430;-49
2022/10/28 05:50:27;;;;;;;21.23;6.53;;;;;;;12.80;100.00;101383.56;7392736;19;20383;-49
2022/10/28 05:52:58;;;;;;;16.73;7.70;;;;;;;12.65;100.00;101383.78;7390988;19;20419;-50
2022/10/28 05:55:30;;;;;;;17.00;7.10;;;;;;;12.64;100.00;101382.03;7392197;19;20408;-50
2022/10/28 05:57:59;;;;;;;11.73;6.83;;;;;;;12.69;100.00;101388.28;7389436;19;20454;-49
2022/10/28 06:00:30;;;;;;;18.03;6.73;;;;;;;12.68;100.00;101389.13;7398038;19;20768;-52
2022/10/28 06:03:08;;;;;;;11.00;6.93;;;;;;;12.59;100.00;101388.69;7390267;19;20421;-50
2022/10/28 06:05:41;;;;;;;13.80;6.87;;;;;;;12.62;100.00;101386.25;7391349;19;20497;-48
2022/10/28 06:08:12;;;;;;;12.20;7.07;;;;;;;12.65;100.00;101389.88;7389214;19;20435;-50
2022/10/28 06:10:41;;;;;;;12.90;7.13;;;;;;;12.62;100.00;101389.72;7392889;19;20386;-53
2022/10/28 06:13:11;;;;;;;14.10;7.17;;;;;;;12.69;100.00;101375.34;7388823;19;20448;-51
2022/10/28 06:15:40;;;;;;;15.60;7.30;;;;;;;12.64;100.00;101382.03;7391492;19;20406;-48
2022/10/28 06:18:10;;;;;;;13.20;6.90;;;;;;;12.62;100.00;101391.44;7387664;19;20413;-49
2022/10/28 06:20:42;;;;;;;12.40;6.57;;;;;;;12.67;100.00;101387.34;7392589;19;20419;-52
2022/10/28 06:23:11;;;;;;;12.83;6.30;;;;;;;12.69;100.00;101380.53;7391983;19;20451;-56
2022/10/28 06:25:41;;;;;;;17.73;7.30;;;;;;;12.55;100.00;101391.19;7390684;19;21022;-50
2022/10/28 06:28:11;;;;;;;12.87;7.63;;;;;;;12.41;100.00;101389.69;7389710;19;20426;-48
2022/10/28 06:30:40;;;;;;;10.20;6.70;;;;;;;12.40;100.00;101391.38;7392722;19;20390;-52
2022/10/28 06:33:09;;;;;;;11.30;7.03;;;;;;;12.39;100.00;101388.72;7389228;19;20420;-50
2022/10/28 06:35:41;;;;;;;12.83;6.97;;;;;;;12.46;100.00;101393.34;7391335;19;20404;-51
2022/10/28 06:38:11;;;;;;;11.83;7.20;;;;;;;12.41;100.00;101389.69;7385402;19;20441;-51
2022/10/28 06:40:41;;;;;;;101.93;52.93;;;;;;;12.89;100.00;101377.91;7392090;19;20395;-49
2022/10/28 06:43:12;;;;;;;60.63;32.10;;;;;;;13.02;100.00;101387.94;7389075;19;20438;-53
2022/10/28 06:45:42;;;;;;;89.10;48.53;;;;;;;13.43;100.00;101379.22;7394123;19;20426;-47
2022/10/28 06:48:12;;;;;;;29.70;17.10;;;;;;;13.45;100.00;101385.34;7386039;19;20402;-47
2022/10/28 06:50:44;;;;;;;57.83;31.43;;;;;;;13.43;100.00;101389.59;7392357;19;20396;-49
2022/10/28 06:53:13;;;;;;;13.20;6.83;;;;;;;13.13;100.00;101397.88;7388188;19;20982;-49
2022/10/28 06:55:47;;;;;;;23.83;9.70;;;;;;;12.92;100.00;101401.34;7389658;19;20404;-50
2022/10/28 06:58:17;;;;;;;16.60;7.40;;;;;;;12.92;100.00;101403.94;7384999;19;20446;-51
2022/10/28 07:00:46;;;;;;;14.57;7.30;;;;;;;12.75;100.00;101411.88;7393289;19;20385;-47
2022/10/28 07:03:17;;;;;;;21.97;10.73;;;;;;;12.97;100.00;101412.75;7388411;19;20410;-53
2022/10/28 07:05:50;;;;;;;20.53;8.53;;;;;;;13.03;100.00;101412.16;7394202;19;20461;-55
2022/10/28 07:08:20;;;;;;;13.67;8.20;;;;;;;12.96;100.00;101416.19;7387368;19;20406;-46
2022/10/28 07:10:55;;;;;;;12.07;6.90;;;;;;;12.86;100.00;101414.03;7390463;19;20412;-51
2022/10/28 07:13:25;;;;;;;17.10;8.00;;;;;;;12.75;100.00;101413.56;7389733;19;20522;-49
2022/10/28 07:15:55;;;;;;;16.30;7.53;;;;;;;12.75;100.00;101411.88;7390090;19;20452;-51
2022/10/28 07:18:27;;;;;;;21.00;7.37;;;;;;;12.76;100.00;101403.28;7386001;19;20991;-49
2022/10/28 07:21:02;;;;;;;13.00;6.97;;;;;;;12.73;100.00;101402.25;7390618;19;20389;-50
2022/10/28 07:23:33;;;;;;;12.93;6.60;;;;;;;12.76;100.00;101407.59;7386248;19;20410;-48
2022/10/28 07:26:02;;;;;;;15.50;6.77;;;;;;;12.78;100.00;101404.22;7386358;19;20524;-55
2022/10/28 07:28:32;;;;;;;16.83;7.67;;;;;;;12.80;100.00;101396.53;7387304;19;20970;-47
2022/10/28 07:31:02;;;;;;;11.57;7.73;;;;;;;12.85;100.00;101392.44;7390102;19;20383;-54
2022/10/28 07:33:32;;;;;;;13.20;7.70;;;;;;;12.90;100.00;101395.19;7386441;19;20418;-47
2022/10/28 07:36:07;;;;;;;13.90;7.77;;;;;;;13.01;100.00;101398.25;7389182;19;20783;-53
2022/10/28 07:39:07;;;;;;;13.17;7.00;;;;;;;13.10;100.00;101396.94;7384708;19;20410;-47
2022/10/28 07:41:38;;;;;;;21.50;7.47;;;;;;;13.16;100.00;101392.81;7379064;19;20405;-51
2022/10/28 07:44:08;;;;;;;14.27;6.90;;;;;;;13.23;100.00;101400.91;7384940;19;20924;-48
2022/10/28 07:46:37;;;;;;;10.63;7.50;;;;;;;13.29;100.00;101410.66;7388096;19;20424;-50
2022/10/28 07:49:07;;;;;;;20.33;7.00;;;;;;;13.25;100.00;101403.56;7385979;19;20440;-50
2022/10/28 07:51:39;;;;;;;13.43;6.90;;;;;;;13.34;100.00;101405.66;7393562;19;20390;-50
2022/10/28 07:54:09;;;;;;;14.17;7.17;;;;;;;13.39;100.00;101398.06;7387292;19;20958;-49
2022/10/28 07:56:38;;;;;;;17.97;7.63;;;;;;;13.45;100.00;101406.09;7386658;19;20430;-51
2022/10/28 07:59:08;;;;;;;17.27;8.50;;;;;;;13.51;100.00;101406.38;7387494;19;20481;-49
2022/10/28 08:01:37;;;;;;;18.17;9.00;;;;;;;13.62;100.00;101409.38;7389957;19;20423;-50
2022/10/28 08:04:07;;;;;;;14.10;7.23;;;;;;;13.66;100.00;101415.56;7386513;19;20470;-51
2022/10/28 08:06:39;;;;;;;11.03;6.90;;;;;;;13.73;100.00;101428.84;7387683;19;20429;-49
2022/10/28 08:09:08;;;;;;;19.63;7.50;;;;;;;13.82;100.00;101424.84;7385767;19;20422;-51
2022/10/28 08:11:38;;;;;;;16.40;6.87;;;;;;;13.89;100.00;101426.84;7394161;19;20401;-51
2022/10/28 08:14:07;;;;;;;19.73;7.70;;;;;;;13.96;100.00;101435.75;7394399;19;20415;-51
2022/10/28 08:16:37;;;;;;;18.63;7.20;;;;;;;14.05;100.00;101420.53;7394758;19;20418;-52
2022/10/28 08:19:07;;;;;;;17.70;6.30;;;;;;;14.13;100.00;101426.91;7393605;19;20472;-47
2022/10/28 08:21:39;;;;;;;21.63;6.93;;;;;;;14.19;100.00;101431.44;7397058;19;20387;-52
2022/10/28 08:24:09;;;;;;;17.23;7.23;;;;;;;14.33;100.00;101429.38;7397843;19;20435;-52
2022/10/28 08:26:39;;;;;;;13.20;6.27;;;;;;;14.43;100.00;101428.00;7394453;19;20446;-49
2022/10/28 08:29:09;;;;;;;10.53;6.17;;;;;;;14.50;100.00;101431.72;7393794;19;21006;-48
2022/10/28 08:31:38;;;;;;;19.03;10.50;;;;;;;14.59;100.00;101429.44;7397043;19;20464;-48
2022/10/28 08:34:08;;;;;;;20.00;11.40;;;;;;;14.70;100.00;101435.91;7392402;19;20439;-50
2022/10/28 08:36:41;;;;;;;12.60;6.43;;;;;;;14.71;100.00;101428.97;7393979;19;20421;-52
2022/10/28 08:39:10;;;;;;;13.97;5.77;;;;;;;14.79;100.00;101432.78;7391421;19;20433;-53
2022/10/28 08:41:42;;;;;;;14.07;6.47;;;;;;;14.82;100.00;101437.19;7400552;19;20393;-48
2022/10/28 08:44:32;;;;;;;20.43;7.30;;;;;;;14.91;100.00;101432.31;7391471;19;20428;-49
2022/10/28 08:47:15;;;;;;;18.57;6.10;;;;;;;14.97;100.00;101423.81;7390930;19;20430;-51
2022/10/28 08:49:45;;;;;;;11.93;6.40;;;;;;;15.12;100.00;101428.66;7396489;19;20752;-52
2022/10/28 08:52:29;;;;;;;14.80;5.93;;;;;;;15.19;100.00;101427.16;7391298;19;20476;-54
2022/10/28 08:55:02;;;;;;;13.43;6.67;;;;;;;15.27;100.00;101432.63;7395043;19;20385;-52
2022/10/28 08:57:38;;;;;;;13.70;5.47;;;;;;;15.34;100.00;101432.00;7388546;19;20438;-50
2022/10/28 09:00:09;;;;;;;16.50;6.37;;;;;;;15.46;100.00;101435.00;7396495;19;20391;-52
2022/10/28 09:02:49;;;;;;;16.83;5.90;;;;;;;15.59;100.00;101438.00;7392461;19;20430;-53
2022/10/28 09:05:22;;;;;;;15.17;5.93;;;;;;;15.65;100.00;101438.19;7394285;19;20391;-51
2022/10/28 09:07:55;;;;;;;15.97;5.37;;;;;;;15.73;100.00;101436.69;7390843;19;20436;-53
2022/10/28 09:10:42;;;;;;;10.67;5.03;;;;;;;15.86;100.00;101444.88;7395926;19;20405;-47
2022/10/28 09:13:17;;;;;;;12.33;4.97;;;;;;;15.90;100.00;101444.16;7383207;19;20811;-52
2022/10/28 09:15:53;;;;;;;12.30;5.50;;;;;;;15.95;100.00;101434.81;7393613;19;20409;-50
2022/10/28 09:18:31;;;;;;;14.47;5.80;;;;;;;16.05;100.00;101439.44;7393532;19;20550;-51
2022/10/28 09:21:04;;;;;;;17.40;5.70;;;;;;;16.14;100.00;101443.13;7394447;19;20410;-49
2022/10/28 09:23:38;;;;;;;14.30;5.57;;;;;;;16.22;100.00;101436.47;7389423;19;20534;-53
2022/10/28 09:26:16;;;;;;;16.10;5.60;;;;;;;16.35;100.00;101429.88;7392767;19;20434;-51
2022/10/28 09:28:56;;;;;;;13.53;5.60;;;;;;;16.43;100.00;101430.09;7388698;19;20782;-49
2022/10/28 09:31:34;;;;;;;11.23;5.20;;;;;;;16.43;100.00;101425.78;7398462;19;20929;-52
2022/10/28 09:34:16;;;;;;;13.57;5.07;;;;;;;16.55;100.00;101425.22;7390363;19;20986;-50
2022/10/28 09:36:48;;;;;;;12.73;5.60;;;;;;;16.66;100.00;101433.34;7391939;19;20442;-51
2022/10/28 09:39:22;;;;;;;15.93;5.00;;;;;;;16.77;100.00;101432.75;7389398;19;20433;-52
2022/10/28 09:41:56;;;;;;;16.07;4.60;;;;;;;16.83;100.00;101441.59;7393820;19;20386;-48
2022/10/28 09:44:30;;;;;;;15.70;5.97;;;;;;;16.89;100.00;101438.31;7390043;19;20418;-51
2022/10/28 09:47:01;;;;;;;13.03;5.77;;;;;;;16.98;100.00;101445.47;7387258;19;20428;-50
2022/10/28 09:49:35;;;;;;;10.00;5.37;;;;;;;17.07;100.00;101445.75;7393443;19;20387;-52
2022/10/28 09:52:09;;;;;;;16.13;5.10;;;;;;;17.08;100.00;101441.41;7395381;19;20763;-52
2022/10/28 09:54:50;;;;;;;13.23;5.00;;;;;;;17.16;100.00;101439.03;7392841;19;20406;-56
2022/10/28 09:57:20;;;;;;;12.67;4.60;;;;;;;17.24;100.00;101437.47;7387137;19;20424;-53
2022/10/28 09:59:50;;;;;;;18.97;4.77;;;;;;;17.34;100.00;101439.44;7393030;19;20403;-48
2022/10/28 10:02:37;;;;;;;13.23;5.50;;;;;;;17.46;100.00;101444.09;7390132;19;20409;-49
2022/10/28 10:05:13;;;;;;;19.83;5.70;;;;;;;17.59;100.00;101444.41;7391258;19;20421;-54
2022/10/28 10:07:48;;;;;;;14.13;5.00;;;;;;;17.69;100.00;101448.97;7390335;19;20824;-48
2022/10/28 10:10:24;;;;;;;21.37;8.43;;;;;;;17.74;100.00;101449.09;7392496;19;20384;-51
2022/10/28 10:12:55;;;;;;;17.93;5.60;;;;;;;17.87;100.00;101447.63;7377879;19;20941;-51
2022/10/28 10:15:29;;;;;;;23.97;9.00;;;;;;;17.91;100.00;101452.97;7391685;19;20398;-52
2022/10/28 10:18:02;;;;;;;25.67;9.50;;;;;;;18.09;100.00;101451.63;7388681;19;20505;-54
2022/10/28 10:20:48;;;;;;;16.13;6.67;;;;;;;18.20;100.00;101457.97;7393009;19;20466;-52
2022/10/28 10:23:25;;;;;;;18.67;7.20;;;;;;;18.32;100.00;101448.63;7391826;19;20447;-52
2022/10/28 10:26:03;;;;;;;11.10;5.20;;;;;;;18.41;100.00;101458.38;7391091;19;20414;-53
2022/10/28 10:28:41;;;;;;;15.13;7.63;;;;;;;18.43;100.00;101449.75;7388679;19;20795;-51
2022/10/28 10:31:19;;;;;;;16.23;5.70;;;;;;;18.50;100.00;101448.13;7394149;19;20585;-51
2022/10/28 10:33:52;;;;;;;12.67;5.50;;;;;;;18.59;100.00;101443.09;7388189;19;20539;-55
2022/10/28 10:36:27;;;;;;;16.00;5.00;;;;;;;18.75;100.00;101439.03;7387692;19;20794;-52
2022/10/28 10:38:58;;;;;;;11.23;5.30;;;;;;;18.81;100.00;101437.38;7387703;19;20446;-55
2022/10/28 10:41:41;;;;;;;22.07;8.60;;;;;;;18.93;100.00;101427.16;7395651;19;20395;-53
2022/10/28 10:44:35;;;;;;;17.33;5.87;;;;;;;18.95;100.00;101427.16;7389090;19;20418;-48
2022/10/28 10:47:22;;;;;;;17.73;5.77;;;;;;;19.09;100.00;101427.44;7386307;19;20454;-49
2022/10/28 10:49:53;;;;;;;14.27;4.37;;;;;;;19.11;100.00;101433.56;7390458;19;20387;-49
2022/10/28 10:52:24;;;;;;;16.27;4.87;;;;;;;19.15;100.00;101433.66;7388186;19;20427;-50
2022/10/28 10:55:04;;;;;;;17.37;4.57;;;;;;;19.19;100.00;101433.69;7390197;19;20463;-55
2022/10/28 10:57:36;;;;;;;11.93;4.23;;;;;;;19.38;100.00;101429.66;7386714;19;20427;-52
2022/10/28 11:00:07;;;;;;;17.13;5.77;;;;;;;19.40;100.00;101426.22;7389752;19;20396;-54
2022/10/28 11:02:39;;;;;;;13.97;4.57;;;;;;;19.50;100.00;101427.25;7387240;19;20434;-57
2022/10/28 11:05:11;;;;;;;19.23;6.13;;;;;;;19.43;100.00;101435.81;7388954;19;20489;-57
2022/10/28 11:07:41;;;;;;;19.87;5.87;;;;;;;19.45;100.00;101423.66;7385080;19;20952;-52
2022/10/28 11:10:23;;;;;;;19.87;5.70;;;;;;;19.49;100.00;101417.59;7393194;19;20755;-49
2022/10/28 11:12:56;;;;;;;17.63;4.97;;;;;;;19.60;100.00;101412.56;7375455;19;20952;-53
2022/10/28 11:15:28;;;;;;;17.30;8.33;;;;;;;19.66;100.00;101414.38;7391227;19;20426;-50
2022/10/28 11:18:01;;;;;;;19.00;6.00;;;;;;;19.74;100.00;101406.63;7368001;19;20407;-54
2022/10/28 11:20:42;;;;;;;21.77;7.20;;;;;;;19.86;100.00;101408.53;7388880;19;20392;-56
2022/10/28 11:23:24;;;;;;;12.17;5.50;;;;;;;19.86;100.00;101417.28;7381403;19;20438;-51
2022/10/28 11:25:55;;;;;;;16.63;4.70;;;;;;;19.83;100.00;101417.22;7387336;19;20463;-48
2022/10/28 11:28:39;;;;;;;16.13;6.10;;;;;;;19.84;100.00;101414.63;7382977;19;20434;-54
2022/10/28 11:31:31;;;;;;;10.80;4.07;;;;;;;19.89;100.00;101411.22;7387294;19;20391;-53
2022/10/28 11:34:12;;;;;;;16.10;5.50;;;;;;;19.88;100.00;101412.06;7383331;19;20420;-54
2022/10/28 11:36:47;;;;;;;18.80;4.83;;;;;;;19.80;100.00;101412.81;7386992;19;20830;-57